Weather

Currently

Time Weather Temperature Precipitation Clouds Wind Wind Bumps Pressure
06:35 6,9 °C 5,7 °C 0,0 mm/h 93 % 0,7 m/s 1031,2 mb

Current values recorded by the weather station installed in the spa park. Data updated at 6:35.


Forecast

Time Weather Temperature Precipitation Clouds Wind Wind Bumps Pressure
01:00 17,3 °C 0 mm/h 0 % 1,2 m/s 1,7 m/s 1018 hPa
02:00 16,8 °C 0 mm/h 0 % 1,5 m/s 2,1 m/s 1018 hPa
03:00 16,4 °C 0 mm/h 0 % 1,5 m/s 2,1 m/s 1018 hPa
04:00 16 °C 0 mm/h 9 % 1,4 m/s 2,1 m/s 1018 hPa
05:00 15,9 °C 0 mm/h 29 % 1,9 m/s 2,9 m/s 1018 hPa
06:00 15,6 °C 0 mm/h 42 % 1,4 m/s 2,9 m/s 1017 hPa
07:00 16,2 °C 0 mm/h 2 % 1,4 m/s 1,9 m/s 1017 hPa
08:00 18,6 °C 0 mm/h 0 % 0,9 m/s 2,4 m/s 1017 hPa
09:00 20,7 °C 0 mm/h 16 % 1,6 m/s 3,9 m/s 1018 hPa
10:00 22,2 °C 0 mm/h 24 % 1,9 m/s 4,7 m/s 1018 hPa
11:00 23,2 °C 0 mm/h 48 % 2,2 m/s 5,3 m/s 1018 hPa
12:00 23,8 °C 0 mm/h 73 % 1,9 m/s 5,3 m/s 1018 hPa
13:00 24,2 °C 0 mm/h 97 % 1,5 m/s 4,7 m/s 1018 hPa
14:00 24,3 °C 0 mm/h 100 % 0,9 m/s 3,9 m/s 1017 hPa
15:00 24,6 °C 0 mm/h 96 % 1,1 m/s 2,8 m/s 1017 hPa
16:00 25,3 °C 0 mm/h 88 % 1 m/s 3,1 m/s 1016 hPa
17:00 25,3 °C 0 mm/h 91 % 2,3 m/s 5,3 m/s 1016 hPa
18:00 23,2 °C 0,01 mm/h 73 % 4,4 m/s 10,2 m/s 1016 hPa
19:00 21,5 °C 0,04 mm/h 98 % 2,7 m/s 10 m/s 1016 hPa
20:00 20,8 °C 0,11 mm/h 100 % 2,6 m/s 4,2 m/s 1016 hPa
21:00 19,3 °C 3,16 mm/h 100 % 3,3 m/s 8,6 m/s 1016 hPa
22:00 18,4 °C 0,44 mm/h 100 % 1,5 m/s 7,2 m/s 1017 hPa
23:00 18,2 °C 0,01 mm/h 100 % 0,5 m/s 3,9 m/s 1017 hPa

Forecast data of ČHMÚ (Czech hydrometeorological institute) based on Aladin numerical model for Konstantinovy Lázně area. The data is updated daily at 6:00.

Time Weather Temperature Precipitation Clouds Wind Wind Bumps Pressure
00:00 17,6 °C 0,09 mm/h 43 % 1,1 m/s 3,4 m/s 1017 hPa
01:00 17,2 °C 0,1 mm/h 100 % 1,4 m/s 3,6 m/s 1017 hPa
02:00 16,9 °C 0,1 mm/h 33 % 1,6 m/s 3,6 m/s 1016 hPa
03:00 16,8 °C 0 mm/h 21 % 1,8 m/s 3,2 m/s 1015 hPa
04:00 16,1 °C 0 mm/h 55 % 0,7 m/s 3,2 m/s 1015 hPa
05:00 15,7 °C 0 mm/h 37 % 0,5 m/s 0,8 m/s 1015 hPa
06:00 15,4 °C 0 mm/h 27 % 1,2 m/s 1,6 m/s 1015 hPa
07:00 16 °C 0 mm/h 40 % 0,7 m/s 1,7 m/s 1015 hPa
08:00 17,7 °C 0 mm/h 42 % 0,4 m/s 1,6 m/s 1015 hPa
09:00 19,4 °C 0 mm/h 29 % 0,1 m/s 1,1 m/s 1016 hPa
10:00 21,4 °C 0 mm/h 20 % 0,4 m/s 1,4 m/s 1015 hPa
11:00 22,8 °C 0 mm/h 22 % 0,9 m/s 2,6 m/s 1015 hPa
12:00 23,9 °C 0 mm/h 31 % 1,3 m/s 3,4 m/s 1015 hPa
13:00 24,9 °C 0 mm/h 34 % 2 m/s 5 m/s 1014 hPa
14:00 25,4 °C 0 mm/h 53 % 2,7 m/s 6,4 m/s 1014 hPa
15:00 23,5 °C 0,02 mm/h 24 % 2,5 m/s 9,5 m/s 1014 hPa
16:00 23,9 °C 0,01 mm/h 17 % 3,3 m/s 7,7 m/s 1013 hPa
17:00 22,7 °C 0 mm/h 45 % 2,6 m/s 9,7 m/s 1013 hPa
18:00 21,2 °C 0 mm/h 98 % 4,7 m/s 11,2 m/s 1014 hPa
19:00 18,7 °C 0,03 mm/h 100 % 3,6 m/s 10,7 m/s 1014 hPa
20:00 17,9 °C 1,01 mm/h 92 % 2,7 m/s 8,8 m/s 1015 hPa
21:00 17,5 °C 0 mm/h 96 % 3,9 m/s 8,6 m/s 1015 hPa
22:00 16,6 °C 0 mm/h 86 % 1,7 m/s 8,6 m/s 1015 hPa
23:00 16,5 °C 0 mm/h 81 % 1,5 m/s 3,1 m/s 1015 hPa

Forecast data of ČHMÚ (Czech hydrometeorological institute) based on Aladin numerical model for Konstantinovy Lázně area. The data is updated daily at 6:00.